createdAt,value
2018-03-03T00:00:04.211Z,-2.60
2018-03-03T00:02:31.087Z,-2.60
2018-03-03T00:04:57.926Z,-2.60
2018-03-03T00:07:24.771Z,-2.60
2018-03-03T00:09:51.641Z,-2.60
2018-03-03T00:12:18.498Z,-2.50
2018-03-03T00:14:45.386Z,-2.70
2018-03-03T00:17:12.974Z,-2.80
2018-03-03T00:19:39.843Z,-2.80
2018-03-03T00:22:06.702Z,-2.90
2018-03-03T00:24:33.538Z,-2.80
2018-03-03T00:27:00.436Z,-2.60
2018-03-03T00:29:27.995Z,-2.60
2018-03-03T00:31:54.845Z,-2.60
2018-03-03T00:34:21.706Z,-2.50
2018-03-03T00:36:48.534Z,-2.60
2018-03-03T00:39:15.372Z,-2.60
2018-03-03T00:41:42.951Z,-2.60
2018-03-03T00:44:09.767Z,-2.60
2018-03-03T00:46:36.624Z,-2.50
2018-03-03T00:49:03.502Z,-2.40
2018-03-03T00:51:30.362Z,-2.30
2018-03-03T00:53:57.212Z,-2.30
2018-03-03T00:56:24.811Z,-2.30
2018-03-03T00:58:52.382Z,-2.30
2018-03-03T01:01:19.211Z,-2.30
2018-03-03T01:03:46.049Z,-2.30
2018-03-03T01:06:12.897Z,-2.30
2018-03-03T01:08:39.735Z,-2.40
2018-03-03T01:11:06.615Z,-2.40
2018-03-03T01:13:34.258Z,-2.20
2018-03-03T01:16:01.108Z,-2.20
2018-03-03T01:18:27.962Z,-2.30
2018-03-03T01:20:54.794Z,-2.40
2018-03-03T01:23:21.661Z,-2.40
2018-03-03T01:25:48.523Z,-2.40
2018-03-03T01:28:15.347Z,-2.20
2018-03-03T01:30:42.176Z,-2.10
2018-03-03T01:33:09.046Z,-2.10
2018-03-03T01:35:35.882Z,-2.30
2018-03-03T01:38:02.729Z,-2.20
2018-03-03T01:40:29.567Z,-2.30
2018-03-03T01:42:56.398Z,-2.40
2018-03-03T01:45:23.207Z,-2.30
2018-03-03T01:47:50.130Z,-2.30
2018-03-03T01:50:16.985Z,-2.20
2018-03-03T01:52:43.824Z,-2.20
2018-03-03T01:55:11.399Z,-2.20
2018-03-03T01:57:38.254Z,-2.30
2018-03-03T02:00:05.136Z,-2.20
2018-03-03T02:02:32.728Z,-2.10
2018-03-03T02:04:59.546Z,-2.10
2018-03-03T02:07:27.159Z,-2.30
2018-03-03T02:09:54.049Z,-2.30
2018-03-03T02:12:20.870Z,-2.20
2018-03-03T02:14:47.714Z,-2.20
2018-03-03T02:17:14.576Z,-2.40
2018-03-03T02:19:41.418Z,-2.60
2018-03-03T02:22:08.394Z,-2.40
2018-03-03T02:24:35.254Z,-2.30
2018-03-03T02:27:02.115Z,-2.20
2018-03-03T02:29:28.943Z,-2.10
2018-03-03T02:31:55.800Z,-2.10
2018-03-03T02:34:22.670Z,-2.10
2018-03-03T02:36:49.508Z,-2.00
2018-03-03T02:39:16.411Z,-1.80
2018-03-03T02:41:43.244Z,-1.90
2018-03-03T02:44:10.815Z,-1.80
2018-03-03T02:46:37.695Z,-1.80
2018-03-03T02:49:04.568Z,-1.70
2018-03-03T02:51:32.146Z,-1.70
2018-03-03T02:53:59.008Z,-1.70
2018-03-03T02:56:25.847Z,-1.80
2018-03-03T02:58:53.391Z,-1.80
2018-03-03T03:01:20.267Z,-1.80
2018-03-03T03:03:47.090Z,-1.80
2018-03-03T03:06:13.938Z,-1.80
2018-03-03T03:08:40.788Z,-2.00
2018-03-03T03:11:07.600Z,-2.10
2018-03-03T03:13:34.445Z,-2.10
2018-03-03T03:16:01.303Z,-2.00
2018-03-03T03:18:28.162Z,-2.10
2018-03-03T03:20:54.978Z,-2.10
2018-03-03T03:23:22.591Z,-2.10
2018-03-03T03:25:49.410Z,-2.10
2018-03-03T03:28:16.251Z,-2.00
2018-03-03T03:30:43.166Z,-1.90
2018-03-03T03:33:09.998Z,-1.90
2018-03-03T03:35:36.856Z,-1.80
2018-03-03T03:38:03.686Z,-1.80
2018-03-03T03:40:31.247Z,-1.90
2018-03-03T03:42:58.840Z,-1.90
2018-03-03T03:45:26.460Z,-2.20
2018-03-03T03:47:54.035Z,-2.30
2018-03-03T03:50:20.890Z,-2.30
2018-03-03T03:52:47.754Z,-2.30
2018-03-03T03:55:14.615Z,-2.30
2018-03-03T03:57:41.473Z,-2.30
2018-03-03T04:00:09.084Z,-2.30
2018-03-03T04:02:35.913Z,-2.30
2018-03-03T04:05:02.806Z,-2.20
2018-03-03T04:07:29.702Z,-2.20
2018-03-03T04:09:56.555Z,-2.40
2018-03-03T04:12:23.383Z,-2.40
2018-03-03T04:14:50.214Z,-2.40
2018-03-03T04:17:17.849Z,-2.40
2018-03-03T04:19:44.671Z,-2.40
2018-03-03T04:22:11.491Z,-2.20
2018-03-03T04:24:38.394Z,-2.10
2018-03-03T04:27:06.015Z,-2.20
2018-03-03T04:29:32.926Z,-2.20
2018-03-03T04:31:59.786Z,-2.20
2018-03-03T04:34:26.626Z,-2.30
2018-03-03T04:36:53.473Z,-2.30
2018-03-03T04:39:20.294Z,-2.50
2018-03-03T04:41:47.118Z,-2.30
2018-03-03T04:44:13.978Z,-2.30
2018-03-03T04:46:40.838Z,-2.20
2018-03-03T04:49:07.714Z,-2.40
2018-03-03T04:51:34.619Z,-2.50
2018-03-03T04:54:01.475Z,-2.40
2018-03-03T04:56:28.322Z,-2.30
2018-03-03T04:59:03.049Z,-2.30
2018-03-03T05:04:37.230Z,-2.30
2018-03-03T05:07:20.750Z,-2.50
2018-03-03T05:10:02.271Z,-2.50
2018-03-03T05:12:36.016Z,-2.40
2018-03-03T05:15:08.902Z,-2.40
2018-03-03T05:17:51.574Z,-2.50
2018-03-03T05:20:57.803Z,-2.50
2018-03-03T05:23:31.647Z,-2.40
2018-03-03T05:26:19.490Z,-2.40
2018-03-03T05:29:21.150Z,-2.30
2018-03-03T05:32:03.088Z,-2.30
2018-03-03T05:34:49.976Z,-2.30
2018-03-03T05:37:23.225Z,-2.20
2018-03-03T05:39:56.242Z,-2.10
2018-03-03T05:45:40.922Z,-2.00
2018-03-03T05:48:26.846Z,-2.10
2018-03-03T05:51:16.942Z,-2.00
2018-03-03T05:54:02.464Z,-2.10
2018-03-03T05:56:43.251Z,-2.10
2018-03-03T05:59:25.103Z,-2.10
2018-03-03T06:02:10.523Z,-2.20
2018-03-03T06:04:39.407Z,-2.20
2018-03-03T06:07:24.118Z,-2.20
2018-03-03T06:10:08.554Z,-2.10
2018-03-03T06:12:36.232Z,-2.40
2018-03-03T06:15:03.186Z,-2.40
2018-03-03T06:17:30.133Z,-2.60
2018-03-03T06:19:57.091Z,-2.40
2018-03-03T06:22:24.283Z,-2.40
2018-03-03T06:24:51.327Z,-2.40
2018-03-03T06:27:18.327Z,-2.20
2018-03-03T06:29:45.353Z,-2.30
2018-03-03T06:32:12.329Z,-2.20
2018-03-03T06:34:39.436Z,-2.20
2018-03-03T06:37:07.216Z,-2.00
2018-03-03T06:39:34.887Z,-1.80
2018-03-03T06:42:02.592Z,-1.80
2018-03-03T06:44:29.563Z,-1.80
2018-03-03T06:46:57.295Z,-1.90
2018-03-03T06:49:24.256Z,-1.90
2018-03-03T06:51:51.414Z,-1.90
2018-03-03T06:54:18.381Z,-1.90
2018-03-03T06:56:45.360Z,-2.10
2018-03-03T06:59:12.309Z,-2.50
2018-03-03T07:01:39.256Z,-2.50
2018-03-03T07:04:06.203Z,-2.40
2018-03-03T07:06:33.211Z,-2.50
2018-03-03T07:09:00.208Z,-2.40
2018-03-03T07:11:27.116Z,-2.10
2018-03-03T07:13:54.118Z,-2.10
2018-03-03T07:16:21.107Z,-2.00
2018-03-03T07:18:48.162Z,-2.00
2018-03-03T07:21:15.058Z,-2.20
2018-03-03T07:23:42.068Z,-2.10
2018-03-03T07:26:08.971Z,-1.80
2018-03-03T07:28:35.839Z,-1.70
2018-03-03T07:31:02.658Z,-1.80
2018-03-03T07:33:29.537Z,-2.00
2018-03-03T07:35:57.126Z,-2.00
2018-03-03T07:38:23.999Z,-2.10
2018-03-03T07:40:50.831Z,-1.80
2018-03-03T07:43:17.683Z,-1.70
2018-03-03T07:45:44.555Z,-1.60
2018-03-03T07:48:11.410Z,-1.40
2018-03-03T07:50:38.271Z,-1.20
2018-03-03T07:53:05.875Z,-0.90
2018-03-03T07:55:32.766Z,-0.90
2018-03-03T07:58:00.347Z,-0.90
2018-03-03T08:00:27.906Z,-0.80
2018-03-03T08:02:54.799Z,-0.80
2018-03-03T08:05:21.700Z,-0.50
2018-03-03T08:07:48.575Z,-0.50
2018-03-03T08:10:15.438Z,-0.40
2018-03-03T08:12:42.287Z,-0.50
2018-03-03T08:15:09.166Z,-0.70
2018-03-03T08:17:36.012Z,-0.90
2018-03-03T08:20:02.894Z,-0.90
2018-03-03T08:22:29.714Z,-0.80
2018-03-03T08:24:57.286Z,-0.70
2018-03-03T08:27:24.200Z,-0.70
2018-03-03T08:29:51.095Z,-0.30
2018-03-03T08:32:17.911Z,-0.10
2018-03-03T08:34:44.735Z,-0.10
2018-03-03T08:37:11.721Z,0.10
2018-03-03T08:39:38.574Z,0.30
2018-03-03T08:42:05.417Z,0.40
2018-03-03T08:44:32.278Z,0.60
2018-03-03T08:46:59.141Z,0.50
2018-03-03T08:49:26.735Z,0.60
2018-03-03T08:51:53.569Z,0.60
2018-03-03T08:54:20.451Z,0.80
2018-03-03T08:56:47.310Z,1.00
2018-03-03T08:59:14.914Z,0.80
2018-03-03T09:01:41.799Z,0.80
2018-03-03T09:04:08.655Z,0.90
2018-03-03T09:06:36.266Z,1.00
2018-03-03T09:09:03.224Z,0.90
2018-03-03T09:11:30.056Z,1.00
2018-03-03T09:13:56.866Z,0.80
2018-03-03T09:16:24.456Z,0.60
2018-03-03T09:18:51.293Z,0.60
2018-03-03T09:21:18.134Z,0.60
2018-03-03T09:23:44.995Z,0.60
2018-03-03T09:26:11.844Z,0.60
2018-03-03T09:28:38.700Z,0.70
2018-03-03T09:31:05.543Z,0.70
2018-03-03T09:33:32.366Z,0.70
2018-03-03T09:35:59.210Z,0.30
2018-03-03T09:38:26.043Z,0.10
2018-03-03T09:40:52.878Z,-0.10
2018-03-03T09:43:19.710Z,-0.20
2018-03-03T09:45:46.572Z,0.10
2018-03-03T09:48:13.398Z,0.40
2018-03-03T09:50:40.223Z,0.80
2018-03-03T09:53:07.812Z,0.60
2018-03-03T09:55:34.664Z,0.60
2018-03-03T09:58:01.507Z,0.40
2018-03-03T10:00:28.394Z,0.00
2018-03-03T10:02:55.279Z,0.30
2018-03-03T10:05:22.091Z,0.50
2018-03-03T10:07:49.663Z,0.70
2018-03-03T10:10:16.498Z,0.70
2018-03-03T10:12:43.350Z,0.90
2018-03-03T10:15:10.238Z,1.00
2018-03-03T10:17:37.102Z,1.20
2018-03-03T10:20:03.944Z,1.20
2018-03-03T10:22:30.782Z,1.00
2018-03-03T10:24:57.727Z,1.10
2018-03-03T10:27:25.360Z,1.00
2018-03-03T10:29:52.270Z,1.00
2018-03-03T10:32:19.203Z,1.00
2018-03-03T10:34:46.016Z,1.00
2018-03-03T10:37:12.899Z,1.00
2018-03-03T10:39:40.454Z,0.80
2018-03-03T10:42:07.300Z,0.80
2018-03-03T10:44:34.922Z,0.90
2018-03-03T10:47:01.759Z,0.80
2018-03-03T10:49:28.592Z,1.20
2018-03-03T10:51:55.618Z,1.40
2018-03-03T10:54:23.393Z,1.30
2018-03-03T10:56:50.466Z,1.00
2018-03-03T10:59:17.608Z,1.10
2018-03-03T11:01:45.212Z,1.60
2018-03-03T11:04:12.119Z,1.50
2018-03-03T11:06:39.031Z,1.90
2018-03-03T11:09:05.867Z,2.20
2018-03-03T11:11:32.738Z,2.30
2018-03-03T11:13:59.582Z,2.20
2018-03-03T11:16:26.396Z,2.10
2018-03-03T11:18:53.266Z,2.40
2018-03-03T11:21:20.130Z,2.50
2018-03-03T11:23:46.958Z,3.10
2018-03-03T11:26:13.771Z,3.50
2018-03-03T11:28:40.647Z,3.50
2018-03-03T11:31:07.564Z,3.40
2018-03-03T11:33:35.278Z,3.40
2018-03-03T11:36:02.959Z,3.30
2018-03-03T11:38:29.830Z,3.30
2018-03-03T11:40:56.690Z,3.10
2018-03-03T11:43:23.527Z,3.00
2018-03-03T11:45:50.402Z,2.70
2018-03-03T11:48:17.222Z,2.80
2018-03-03T11:50:44.047Z,3.60
2018-03-03T11:53:10.922Z,3.70
2018-03-03T11:55:37.787Z,3.90
2018-03-03T11:58:04.664Z,4.40
2018-03-03T12:00:31.604Z,4.10
2018-03-03T12:02:58.471Z,4.00
2018-03-03T12:05:25.300Z,3.50
2018-03-03T12:07:52.167Z,3.30
2018-03-03T12:10:19.008Z,3.30
2018-03-03T12:12:45.843Z,3.30
2018-03-03T12:15:12.707Z,3.80
2018-03-03T12:17:39.614Z,4.50
2018-03-03T12:20:07.289Z,5.20
2018-03-03T12:22:34.127Z,5.20
2018-03-03T12:25:00.976Z,4.80
2018-03-03T12:27:28.572Z,5.50
2018-03-03T12:29:55.472Z,5.50
2018-03-03T12:32:22.364Z,5.70
2018-03-03T12:34:49.949Z,4.80
2018-03-03T12:37:16.944Z,4.80
2018-03-03T12:39:43.907Z,4.40
2018-03-03T12:42:10.767Z,4.10
2018-03-03T12:44:37.602Z,4.10
2018-03-03T12:47:04.459Z,3.70
2018-03-03T12:49:32.028Z,3.70
2018-03-03T12:51:59.631Z,3.60
2018-03-03T12:54:26.475Z,3.50
2018-03-03T12:56:53.354Z,3.40
2018-03-03T12:59:20.245Z,3.20
2018-03-03T13:01:47.117Z,2.90
2018-03-03T13:04:13.959Z,2.70
2018-03-03T13:06:40.827Z,3.00
2018-03-03T13:09:07.716Z,3.00
2018-03-03T13:11:34.555Z,2.90
2018-03-03T13:14:01.427Z,2.70
2018-03-03T13:16:28.359Z,2.70
2018-03-03T13:18:55.219Z,2.40
2018-03-03T13:21:22.054Z,2.80
2018-03-03T13:23:48.927Z,2.90
2018-03-03T13:26:15.942Z,3.00
2018-03-03T13:28:42.791Z,2.80
2018-03-03T13:31:09.601Z,2.70
2018-03-03T13:33:37.214Z,2.60
2018-03-03T13:36:04.039Z,2.60
2018-03-03T13:38:30.864Z,2.40
2018-03-03T13:40:57.693Z,2.10
2018-03-03T13:43:24.519Z,1.90
2018-03-03T13:45:51.358Z,1.90
2018-03-03T13:48:18.229Z,2.30
2018-03-03T13:50:45.078Z,2.60
2018-03-03T13:53:11.907Z,2.50
2018-03-03T13:55:38.770Z,2.40
2018-03-03T13:58:05.607Z,2.30
2018-03-03T14:00:32.435Z,2.40
2018-03-03T14:02:59.315Z,2.30
2018-03-03T14:05:26.889Z,2.30
2018-03-03T14:07:53.747Z,2.30
2018-03-03T14:10:20.623Z,2.40
2018-03-03T14:12:47.467Z,2.40
2018-03-03T14:15:14.352Z,2.50
2018-03-03T14:17:41.246Z,2.50
2018-03-03T14:20:08.097Z,2.50
2018-03-03T14:22:34.918Z,2.40
2018-03-03T14:25:01.791Z,2.20
2018-03-03T14:27:28.632Z,2.20
2018-03-03T14:29:55.495Z,2.30
2018-03-03T14:32:22.350Z,2.50
2018-03-03T14:34:49.174Z,2.40
2018-03-03T14:37:16.028Z,2.40
2018-03-03T14:39:42.917Z,2.30
2018-03-03T14:42:09.767Z,2.20
2018-03-03T14:44:36.615Z,2.00
2018-03-03T14:47:03.466Z,1.80
2018-03-03T14:49:31.030Z,2.00
2018-03-03T14:51:57.859Z,2.00
2018-03-03T14:54:24.706Z,2.10
2018-03-03T14:56:51.526Z,2.20
2018-03-03T14:59:19.122Z,2.20
2018-03-03T15:01:45.978Z,2.20
2018-03-03T15:04:12.799Z,2.20
2018-03-03T15:06:39.620Z,2.20
2018-03-03T15:09:07.232Z,2.10
2018-03-03T15:11:34.060Z,2.10
2018-03-03T15:14:00.944Z,2.10
2018-03-03T15:16:28.557Z,1.90
2018-03-03T15:18:55.430Z,1.90
2018-03-03T15:21:22.246Z,2.00
2018-03-03T15:23:49.083Z,2.10
2018-03-03T15:26:15.944Z,1.90
2018-03-03T15:28:42.824Z,2.00
2018-03-03T15:31:10.435Z,2.00
2018-03-03T15:33:37.260Z,1.90
2018-03-03T15:36:04.110Z,2.00
2018-03-03T15:38:30.964Z,2.00
2018-03-03T15:40:57.805Z,2.00
2018-03-03T15:43:24.670Z,2.00
2018-03-03T15:45:51.490Z,2.00
2018-03-03T15:48:18.323Z,1.70
2018-03-03T15:50:45.289Z,1.70
2018-03-03T15:53:12.232Z,1.90
2018-03-03T15:55:39.106Z,1.90
2018-03-03T15:58:05.966Z,2.00
2018-03-03T16:00:32.815Z,2.10
2018-03-03T16:03:00.398Z,1.90
2018-03-03T16:05:27.268Z,1.90
2018-03-03T16:07:54.114Z,1.90
2018-03-03T16:10:20.947Z,1.70
2018-03-03T16:12:47.955Z,1.70
2018-03-03T16:15:15.065Z,1.70
2018-03-03T16:17:42.018Z,1.50
2018-03-03T16:20:09.733Z,1.60
2018-03-03T16:22:36.575Z,1.60
2018-03-03T16:25:03.464Z,1.60
2018-03-03T16:27:30.299Z,1.50
2018-03-03T16:29:57.114Z,1.40
2018-03-03T16:32:24.002Z,1.40
2018-03-03T16:34:51.658Z,1.50
2018-03-03T16:37:18.646Z,1.50
2018-03-03T16:39:45.482Z,1.50
2018-03-03T16:42:12.379Z,1.50
2018-03-03T16:44:39.214Z,1.50
2018-03-03T16:47:06.058Z,1.60
2018-03-03T16:49:32.920Z,1.50
2018-03-03T16:52:00.528Z,1.40
2018-03-03T16:54:27.379Z,1.40
2018-03-03T16:56:55.016Z,1.40
2018-03-03T16:59:21.823Z,1.40
2018-03-03T17:01:49.400Z,1.50
2018-03-03T17:04:17.002Z,1.40
2018-03-03T17:06:43.915Z,1.30
2018-03-03T17:09:10.881Z,1.30
2018-03-03T17:11:37.727Z,1.20
2018-03-03T17:14:04.559Z,1.20
2018-03-03T17:16:31.823Z,1.30
2018-03-03T17:18:58.830Z,1.30
2018-03-03T17:21:25.703Z,1.30
2018-03-03T17:23:52.606Z,1.20
2018-03-03T17:26:19.668Z,1.20
2018-03-03T17:28:46.559Z,1.10
2018-03-03T17:31:13.421Z,0.90
2018-03-03T17:33:40.262Z,0.90
2018-03-03T17:36:07.081Z,0.90
2018-03-03T17:38:33.988Z,0.80
2018-03-03T17:41:00.837Z,0.70
2018-03-03T17:43:27.703Z,0.70
2018-03-03T17:45:54.560Z,0.70
2018-03-03T17:48:21.619Z,0.70
2018-03-03T17:50:48.594Z,0.80
2018-03-03T17:53:15.450Z,1.00
2018-03-03T17:55:43.020Z,1.10
2018-03-03T17:58:09.847Z,1.10
2018-03-03T18:00:36.724Z,1.20
2018-03-03T18:03:04.282Z,1.10
2018-03-03T18:05:31.139Z,1.10
2018-03-03T18:07:57.971Z,0.90
2018-03-03T18:10:24.812Z,1.00
2018-03-03T18:12:51.672Z,1.00
2018-03-03T18:15:18.513Z,1.00
2018-03-03T18:17:45.359Z,1.10
2018-03-03T18:20:12.195Z,1.20
2018-03-03T18:22:39.047Z,1.10
2018-03-03T18:25:05.902Z,1.20
2018-03-03T18:27:32.764Z,1.20
2018-03-03T18:29:59.607Z,1.10
2018-03-03T18:32:26.427Z,1.20
2018-03-03T18:34:53.349Z,1.20
2018-03-03T18:37:21.202Z,1.30
2018-03-03T18:39:51.964Z,1.30
2018-03-03T18:42:20.192Z,1.20
2018-03-03T18:44:47.773Z,1.30
2018-03-03T18:47:14.647Z,1.30
2018-03-03T18:49:41.522Z,1.20
2018-03-03T18:52:08.408Z,1.20
2018-03-03T18:54:35.926Z,1.10
2018-03-03T18:57:02.763Z,1.00
2018-03-03T18:59:30.336Z,1.10
2018-03-03T19:01:58.537Z,1.30
2018-03-03T19:04:25.383Z,1.20
2018-03-03T19:06:52.255Z,1.30
2018-03-03T19:09:19.112Z,1.20
2018-03-03T19:11:45.972Z,1.20
2018-03-03T19:14:12.808Z,1.20
2018-03-03T19:16:39.648Z,1.20
2018-03-03T19:19:06.526Z,1.10
2018-03-03T19:21:34.407Z,1.10
2018-03-03T19:24:01.324Z,1.20
2018-03-03T19:26:28.908Z,1.10
2018-03-03T19:28:56.468Z,1.10
2018-03-03T19:31:23.349Z,1.10
2018-03-03T19:33:50.196Z,1.10
2018-03-03T19:36:17.031Z,1.10
2018-03-03T19:38:43.909Z,1.10
2018-03-03T19:41:10.786Z,1.20
2018-03-03T19:43:37.651Z,1.20
2018-03-03T19:46:05.380Z,1.10
2018-03-03T19:48:32.208Z,1.10
2018-03-03T19:50:59.112Z,1.10
2018-03-03T19:53:25.956Z,1.20
2018-03-03T19:55:52.813Z,1.10
2018-03-03T19:58:19.716Z,1.10
2018-03-03T20:00:47.126Z,1.30
2018-03-03T20:03:14.721Z,1.20
2018-03-03T20:05:41.621Z,1.20
2018-03-03T20:08:08.438Z,1.20
2018-03-03T20:10:36.443Z,1.20
2018-03-03T20:13:03.311Z,1.20
2018-03-03T20:15:31.823Z,1.00
2018-03-03T20:17:58.654Z,1.00
2018-03-03T20:20:25.513Z,1.10
2018-03-03T20:22:52.404Z,1.10
2018-03-03T20:25:20.064Z,1.10
2018-03-03T20:27:47.775Z,1.10
2018-03-03T20:30:14.648Z,1.00
2018-03-03T20:32:41.483Z,1.10
2018-03-03T20:35:08.350Z,1.10
2018-03-03T20:37:35.204Z,1.10
2018-03-03T20:40:02.824Z,1.20
2018-03-03T20:42:29.710Z,1.20
2018-03-03T20:44:57.106Z,1.20
2018-03-03T20:47:23.931Z,1.20
2018-03-03T20:49:50.799Z,1.30
2018-03-03T20:52:17.643Z,1.20
2018-03-03T20:54:44.490Z,1.20
2018-03-03T20:57:11.350Z,1.10
2018-03-03T20:59:38.192Z,1.10
2018-03-03T21:02:05.044Z,1.00
2018-03-03T21:04:31.915Z,1.00
2018-03-03T21:06:59.530Z,1.10
2018-03-03T21:09:26.358Z,1.00
2018-03-03T21:12:05.123Z,1.20
2018-03-03T21:14:32.019Z,1.20
2018-03-03T21:16:58.848Z,1.20
2018-03-03T21:19:26.735Z,1.30
2018-03-03T21:21:53.554Z,1.20
2018-03-03T21:24:21.115Z,1.30
2018-03-03T21:26:48.727Z,1.30
2018-03-03T21:29:15.576Z,1.20
2018-03-03T21:31:42.427Z,1.20
2018-03-03T21:34:09.303Z,1.20
2018-03-03T21:36:36.863Z,1.30
2018-03-03T21:39:03.795Z,1.30
2018-03-03T21:41:30.625Z,1.20
2018-03-03T21:43:58.212Z,1.00
2018-03-03T21:46:25.081Z,1.00
2018-03-03T21:48:51.944Z,1.10
2018-03-03T21:51:18.776Z,1.10
2018-03-03T21:53:45.592Z,1.00
2018-03-03T21:56:12.435Z,1.00
2018-03-03T21:58:39.306Z,1.00
2018-03-03T22:01:06.155Z,1.00
2018-03-03T22:03:32.958Z,1.00
2018-03-03T22:05:59.794Z,0.90
2018-03-03T22:08:27.367Z,1.00
2018-03-03T22:10:54.198Z,0.90
2018-03-03T22:13:21.039Z,1.00
2018-03-03T22:15:47.870Z,0.90
2018-03-03T22:18:15.451Z,0.80
2018-03-03T22:20:43.042Z,0.80
2018-03-03T22:23:10.612Z,0.90
2018-03-03T22:25:37.474Z,0.90
2018-03-03T22:28:04.322Z,0.90
2018-03-03T22:30:31.154Z,1.00
2018-03-03T22:32:57.981Z,1.00
2018-03-03T22:35:25.602Z,1.10
2018-03-03T22:37:52.450Z,1.10
2018-03-03T22:40:19.268Z,1.10
2018-03-03T22:42:46.863Z,1.00
2018-03-03T22:45:13.728Z,1.00
2018-03-03T22:47:40.550Z,1.00
2018-03-03T22:50:07.467Z,0.90
2018-03-03T22:52:34.316Z,0.90
2018-03-03T22:55:01.159Z,0.90
2018-03-03T22:57:28.023Z,0.90
2018-03-03T22:59:54.900Z,0.90
2018-03-03T23:02:21.723Z,1.10
2018-03-03T23:04:48.595Z,1.20
2018-03-03T23:07:16.190Z,1.10
2018-03-03T23:09:43.007Z,1.10
2018-03-03T23:12:10.598Z,1.20
2018-03-03T23:14:38.159Z,1.10
2018-03-03T23:17:04.990Z,1.10
2018-03-03T23:19:31.851Z,1.10
2018-03-03T23:21:58.651Z,1.00
2018-03-03T23:24:25.553Z,1.00
2018-03-03T23:26:52.389Z,1.00
2018-03-03T23:29:19.210Z,0.90
2018-03-03T23:31:46.795Z,0.90
2018-03-03T23:34:13.655Z,0.90
2018-03-03T23:36:40.606Z,0.90
2018-03-03T23:39:08.226Z,1.10
2018-03-03T23:41:35.051Z,1.10
2018-03-03T23:44:01.914Z,0.90
2018-03-03T23:46:28.763Z,0.70
2018-03-03T23:48:55.595Z,0.80
2018-03-03T23:51:22.446Z,0.90
2018-03-03T23:53:49.262Z,0.90
2018-03-03T23:56:16.798Z,0.90
2018-03-03T23:58:43.651Z,0.90
